Time;durP1;ratioP1;P1;durP2;ratioP2;P2;SDS_P1;SDS_P2;PMS_P1;PMS_P2;Temp;Humidity;BMP_temperature;BMP_pressure;BME280_temperature;BME280_humidity;BME280_pressure;Samples;Min_cycle;Max_cycle;Signal;HPM_P1;HPM_P2
2021/11/21 00:00:49;;;;;;;;;;;;;;;15.67;60.49;100473.88;5003482;27;128695;-65
2021/11/21 00:03:15;;;;;;;;;;;;;;;15.66;60.52;100457.88;5003786;27;98367;-57
2021/11/21 00:05:43;;;;;;;;;;;;;;;15.66;60.29;100452.44;5001898;27;128368;-57
2021/11/21 00:08:10;;;;;;;;;;;;;;;15.66;60.48;100449.72;5004099;27;97971;-57
2021/11/21 00:10:36;;;;;;;;;;;;;;;15.67;60.22;100445.88;5003631;27;98620;-65
2021/11/21 00:13:02;;;;;;;;;;;;;;;15.66;60.20;100447.00;5003801;27;98106;-64
2021/11/21 00:15:28;;;;;;;;;;;;;;;15.66;60.29;100449.72;5004861;27;98053;-64
2021/11/21 00:17:54;;;;;;;;;;;;;;;15.65;60.17;100451.63;5005287;27;97580;-57
2021/11/21 00:20:20;;;;;;;;;;;;;;;15.64;60.37;100450.00;5002707;27;127602;-65
2021/11/21 00:22:46;;;;;;;;;;;;;;;15.65;60.39;100443.47;5002296;27;127924;-57
2021/11/21 00:25:12;;;;;;;;;;;;;;;15.65;60.47;100448.13;4983746;27;128321;-57
2021/11/21 00:27:38;;;;;;;;;;;;;;;15.65;60.44;100445.41;5003157;27;113324;-65
2021/11/21 00:30:04;;;;;;;;;;;;;;;15.64;60.09;100436.41;5004491;27;98372;-57
2021/11/21 00:32:30;;;;;;;;;;;;;;;15.64;60.37;100436.41;4981076;28;104074;-57
2021/11/21 00:34:56;;;;;;;;;;;;;;;15.63;60.25;100437.50;5001069;27;127007;-57
2021/11/21 00:37:22;;;;;;;;;;;;;;;15.63;60.10;100432.06;5004948;27;97982;-57
2021/11/21 00:39:48;;;;;;;;;;;;;;;15.62;60.08;100430.47;5003547;27;98415;-57
2021/11/21 00:42:15;;;;;;;;;;;;;;;15.62;60.11;100435.91;5002986;27;119336;-57
2021/11/21 00:44:43;;;;;;;;;;;;;;;15.63;60.05;100444.84;5003278;27;98141;-57
2021/11/21 00:47:09;;;;;;;;;;;;;;;15.63;60.26;100444.84;5003659;27;98159;-57
2021/11/21 00:49:35;;;;;;;;;;;;;;;15.61;60.18;100439.72;5002792;27;120848;-57
2021/11/21 00:52:02;;;;;;;;;;;;;;;15.62;60.33;100435.91;5002961;27;99281;-65
2021/11/21 00:54:48;;;;;;;;;;;;;;;15.60;60.27;100432.69;5003154;27;98445;-64
2021/11/21 00:57:14;;;;;;;;;;;;;;;15.60;60.28;100421.81;4988322;27;98125;-64
2021/11/21 00:59:40;;;;;;;;;;;;;;;15.60;60.18;100429.16;5003411;27;98174;-65
2021/11/21 01:02:11;;;;;;;;;;;;;;;15.60;60.23;100415.56;5003392;27;98720;-58
2021/11/21 01:04:37;;;;;;;;;;;;;;;15.60;60.34;100421.81;4985871;27;98318;-57
2021/11/21 01:07:03;;;;;;;;;;;;;;;15.60;60.13;100415.56;4984122;27;98140;-57
2021/11/21 01:09:29;;;;;;;;;;;;;;;15.59;60.17;100408.53;5001568;27;114487;-57
2021/11/21 01:11:57;;;;;;;;;;;;;;;15.59;60.15;100411.25;5002672;27;97961;-65
2021/11/21 01:14:24;;;;;;;;;;;;;;;15.57;60.22;100395.25;5002377;27;98631;-64
2021/11/21 01:16:50;;;;;;;;;;;;;;;15.58;60.25;100402.28;5003904;27;97657;-57
2021/11/21 01:19:16;;;;;;;;;;;;;;;15.58;60.32;100409.66;5001768;27;118177;-57
2021/11/21 01:21:42;;;;;;;;;;;;;;;15.58;59.98;100420.50;5002568;27;128672;-57
2021/11/21 01:24:07;;;;;;;;;;;;;;;15.57;59.93;100410.75;5001910;27;127833;-65
2021/11/21 01:26:33;;;;;;;;;;;;;;;15.57;60.00;100416.19;5001597;27;113346;-64
2021/11/21 01:28:59;;;;;;;;;;;;;;;15.56;60.29;100417.28;5001579;27;117480;-57
2021/11/21 01:31:25;;;;;;;;;;;;;;;15.57;60.20;100418.91;5001900;27;129016;-65
2021/11/21 01:33:51;;;;;;;;;;;;;;;15.56;60.07;100409.13;5002833;27;97880;-65
2021/11/21 01:36:17;;;;;;;;;;;;;;;15.55;60.09;100399.38;5003739;27;97942;-65
2021/11/21 01:38:43;;;;;;;;;;;;;;;15.54;60.20;100398.56;5001049;27;123939;-57
2021/11/21 01:41:10;;;;;;;;;;;;;;;15.54;59.88;100395.06;5002986;27;101802;-57
2021/11/21 01:43:36;;;;;;;;;;;;;;;15.53;59.94;100391.53;5001779;27;119387;-64
2021/11/21 01:46:02;;;;;;;;;;;;;;;15.53;60.17;100386.09;4982432;27;113181;-57
2021/11/21 01:48:28;;;;;;;;;;;;;;;15.52;60.29;100372.81;5001905;27;105679;-64
2021/11/21 01:50:54;;;;;;;;;;;;;;;15.53;59.92;100377.97;4992073;27;110112;-57
2021/11/21 01:53:20;;;;;;;;;;;;;;;15.53;60.12;100372.53;4946717;28;120317;-64
2021/11/21 01:55:47;;;;;;;;;;;;;;;15.52;59.88;100365.47;4982290;28;113424;-57
2021/11/21 01:58:15;;;;;;;;;;;;;;;15.52;59.74;100368.19;4987926;27;98153;-57
2021/11/21 02:00:42;;;;;;;;;;;;;;;15.51;59.86;100358.44;5002597;27;98793;-64
2021/11/21 02:03:08;;;;;;;;;;;;;;;15.50;59.62;100362.25;5001561;27;121205;-57
2021/11/21 02:05:34;;;;;;;;;;;;;;;15.50;59.83;100353.31;5000517;27;113755;-64
2021/11/21 02:08:00;;;;;;;;;;;;;;;15.49;59.93;100351.69;5001685;27;98322;-65
2021/11/21 02:10:26;;;;;;;;;;;;;;;15.48;59.99;100345.44;5002025;27;98574;-57
2021/11/21 02:12:52;;;;;;;;;;;;;;;15.49;60.20;100343.56;5002485;27;98252;-57
2021/11/21 02:15:20;;;;;;;;;;;;;;;15.46;59.63;100343.03;5002179;27;97821;-63
2021/11/21 02:17:46;;;;;;;;;;;;;;;15.46;59.72;100343.03;5001380;27;123137;-64
2021/11/21 02:20:18;;;;;;;;;;;;;;;15.46;59.56;100331.38;5001795;27;98320;-57
2021/11/21 02:22:44;;;;;;;;;;;;;;;15.46;59.93;100334.09;4981507;27;97894;-57
2021/11/21 02:25:10;;;;;;;;;;;;;;;15.45;59.80;100332.50;5001943;27;97736;-57
2021/11/21 02:27:36;;;;;;;;;;;;;;;15.45;60.02;100318.91;5000788;27;98263;-65
2021/11/21 02:30:05;;;;;;;;;;;;;;;15.44;60.04;100328.97;5001736;27;112880;-57
2021/11/21 02:32:31;;;;;;;;;;;;;;;15.43;59.62;100319.19;5000480;27;114577;-65
2021/11/21 02:34:57;;;;;;;;;;;;;;;15.43;59.95;100315.69;5001457;27;106183;-64
2021/11/21 02:37:23;;;;;;;;;;;;;;;15.42;60.00;100312.16;5002246;27;98311;-58
2021/11/21 02:39:49;;;;;;;;;;;;;;;15.42;59.64;100311.34;5002268;27;98476;-64
2021/11/21 02:42:26;;;;;;;;;;;;;;;15.41;59.69;100302.41;5000078;27;126870;-64
2021/11/21 02:44:52;;;;;;;;;;;;;;;15.41;59.84;100298.91;5003337;27;97889;-64
2021/11/21 02:47:18;;;;;;;;;;;;;;;15.39;59.76;100299.19;5000986;27;128966;-64
2021/11/21 02:49:43;;;;;;;;;;;;;;;15.38;59.64;100292.16;4982239;27;128888;-57
2021/11/21 02:52:09;;;;;;;;;;;;;;;15.38;59.82;100292.16;5000722;27;127779;-64
2021/11/21 02:54:35;;;;;;;;;;;;;;;15.36;59.86;100296.25;4983411;27;105800;-65
2021/11/21 02:57:01;;;;;;;;;;;;;;;15.37;59.81;100287.03;4982750;27;125594;-62
2021/11/21 02:59:27;;;;;;;;;;;;;;;15.37;59.66;100295.19;4985786;27;117034;-65
2021/11/21 03:01:53;;;;;;;;;;;;;;;15.36;59.56;100290.84;5004741;27;98728;-57
2021/11/21 03:04:23;;;;;;;;;;;;;;;15.35;59.72;100281.88;5005094;27;100712;-64
2021/11/21 03:06:49;;;;;;;;;;;;;;;15.34;59.92;100285.72;5004833;27;98292;-57
2021/11/21 03:09:24;;;;;;;;;;;;;;;15.35;59.50;100275.66;5004839;27;98406;-58
2021/11/21 03:11:52;;;;;;;;;;;;;;;15.34;59.82;100268.63;5003461;27;128128;-57
2021/11/21 03:14:19;;;;;;;;;;;;;;;15.34;59.77;100268.63;4986757;27;97989;-65
2021/11/21 03:16:49;;;;;;;;;;;;;;;15.34;59.44;100265.91;5004012;27;98581;-57
2021/11/21 03:19:15;;;;;;;;;;;;;;;15.33;59.69;100262.41;5004050;27;123890;-65
2021/11/21 03:21:41;;;;;;;;;;;;;;;15.32;59.49;100258.03;4985890;27;98050;-57
2021/11/21 03:24:07;;;;;;;;;;;;;;;15.31;59.80;100259.16;5004808;27;102764;-65
2021/11/21 03:26:33;;;;;;;;;;;;;;;15.32;59.49;100254.53;5004991;27;98209;-64
2021/11/21 03:28:59;;;;;;;;;;;;;;;15.31;59.61;100255.66;5003955;27;98951;-65
2021/11/21 03:31:25;;;;;;;;;;;;;;;15.30;59.39;100254.84;5003405;27;128618;-57
2021/11/21 03:33:51;;;;;;;;;;;;;;;15.30;59.61;100243.97;5005268;27;98159;-65
2021/11/21 03:36:17;;;;;;;;;;;;;;;15.30;59.56;100248.63;5004230;27;113916;-57
2021/11/21 03:38:43;;;;;;;;;;;;;;;15.27;59.41;100241.88;5004025;27;118508;-57
2021/11/21 03:41:09;;;;;;;;;;;;;;;15.29;59.42;100236.13;5003518;27;121402;-65
2021/11/21 03:43:35;;;;;;;;;;;;;;;15.27;59.65;100239.16;4985326;27;105030;-57
2021/11/21 03:46:01;;;;;;;;;;;;;;;15.27;59.63;100243.78;5004025;27;129158;-64
2021/11/21 03:48:27;;;;;;;;;;;;;;;15.25;59.69;100238.66;5003489;27;128966;-57
2021/11/21 03:50:53;;;;;;;;;;;;;;;15.25;59.61;100229.69;5004595;27;98057;-65
2021/11/21 03:53:19;;;;;;;;;;;;;;;15.23;59.45;100230.81;5003098;27;113684;-65
2021/11/21 03:55:45;;;;;;;;;;;;;;;15.23;59.58;100228.09;5004130;27;115834;-58
2021/11/21 03:58:11;;;;;;;;;;;;;;;15.23;59.30;100221.88;5004281;27;104236;-60
2021/11/21 04:00:37;;;;;;;;;;;;;;;15.21;59.35;100219.47;5003473;27;128311;-57
2021/11/21 04:03:05;;;;;;;;;;;;;;;15.21;59.51;100222.19;5003753;27;97906;-65
2021/11/21 04:05:31;;;;;;;;;;;;;;;15.22;59.32;100223.78;4985336;27;98775;-64
2021/11/21 04:07:57;;;;;;;;;;;;;;;15.21;59.62;100218.66;5004005;27;99119;-57
2021/11/21 04:10:23;;;;;;;;;;;;;;;15.21;59.22;100218.66;5004372;27;98042;-64
2021/11/21 04:12:49;;;;;;;;;;;;;;;15.21;59.57;100215.94;5004044;27;97818;-56
2021/11/21 04:15:15;;;;;;;;;;;;;;;15.20;59.32;100209.69;5003055;27;111022;-64
2021/11/21 04:17:41;;;;;;;;;;;;;;;15.20;59.62;100208.91;5002439;27;127017;-65
2021/11/21 04:20:07;;;;;;;;;;;;;;;15.19;59.53;100202.66;5003815;27;98193;-57
2021/11/21 04:22:33;;;;;;;;;;;;;;;15.18;59.37;100209.22;5003963;27;97939;-64
2021/11/21 04:24:59;;;;;;;;;;;;;;;15.18;59.34;100200.25;5003609;27;97726;-57
2021/11/21 04:27:27;;;;;;;;;;;;;;;15.17;59.36;100198.66;5003436;27;98770;-57
2021/11/21 04:29:54;;;;;;;;;;;;;;;15.16;59.37;100195.13;5003338;27;98784;-57
2021/11/21 04:32:20;;;;;;;;;;;;;;;15.16;59.56;100188.88;5003953;27;97744;-57
2021/11/21 04:34:46;;;;;;;;;;;;;;;15.17;59.50;100193.22;4967941;27;101071;-57
2021/11/21 04:37:12;;;;;;;;;;;;;;;15.17;59.31;100179.66;5002206;27;125666;-57
2021/11/21 04:39:38;;;;;;;;;;;;;;;15.16;59.36;100178.03;5003511;27;127932;-65
2021/11/21 04:42:04;;;;;;;;;;;;;;;15.17;59.46;100187.81;5004139;27;111873;-58
2021/11/21 04:44:30;;;;;;;;;;;;;;;15.15;59.21;100182.66;5003811;27;99283;-57
2021/11/21 04:46:56;;;;;;;;;;;;;;;15.14;59.26;100178.34;5001972;27;127266;-64
2021/11/21 04:49:22;;;;;;;;;;;;;;;15.15;59.46;100179.16;5002812;27;127916;-64
2021/11/21 04:51:48;;;;;;;;;;;;;;;15.14;59.29;100172.13;5002870;27;111944;-57
2021/11/21 04:54:20;;;;;;;;;;;;;;;15.14;59.28;100166.69;5002869;27;98714;-57
2021/11/21 04:56:47;;;;;;;;;;;;;;;15.14;59.40;100174.84;5002392;27;98857;-57
2021/11/21 04:59:16;;;;;;;;;;;;;;;15.14;59.16;100166.69;5003045;27;98576;-57
2021/11/21 05:01:42;;;;;;;;;;;;;;;15.13;59.27;100167.78;5003443;27;97798;-57
2021/11/21 05:04:08;;;;;;;;;;;;;;;15.13;59.44;100165.06;5002294;27;127562;-65
2021/11/21 05:06:33;;;;;;;;;;;;;;;15.13;59.39;100170.50;5002417;27;128674;-57
2021/11/21 05:09:01;;;;;;;;;;;;;;;15.12;59.43;100169.69;5001592;27;128393;-64
2021/11/21 05:11:27;;;;;;;;;;;;;;;15.11;59.42;100165.38;5004265;27;98007;-64
2021/11/21 05:13:53;;;;;;;;;;;;;;;15.12;59.43;100164.25;5002116;27;127526;-64
2021/11/21 05:16:19;;;;;;;;;;;;;;;15.12;59.48;100161.53;5003068;27;98169;-65
2021/11/21 05:18:45;;;;;;;;;;;;;;;15.12;59.28;100160.75;5001859;27;127574;-57
2021/11/21 05:21:11;;;;;;;;;;;;;;;15.11;59.48;100151.00;5001727;27;111407;-57
2021/11/21 05:23:37;;;;;;;;;;;;;;;15.11;59.22;100146.38;4983798;27;100862;-57
2021/11/21 05:26:02;;;;;;;;;;;;;;;15.11;59.29;100151.81;5001389;27;128827;-57
2021/11/21 05:28:28;;;;;;;;;;;;;;;15.10;59.16;100150.22;4983092;27;126329;-57
2021/11/21 05:30:54;;;;;;;;;;;;;;;15.10;59.00;100139.34;5002701;27;97958;-57
2021/11/21 05:33:20;;;;;;;;;;;;;;;15.09;59.44;100135.03;5001679;27;101562;-57
2021/11/21 05:35:46;;;;;;;;;;;;;;;15.10;59.16;100131.22;5002415;27;109573;-60
2021/11/21 05:38:12;;;;;;;;;;;;;;;15.08;59.25;100124.47;5000770;27;127908;-58
2021/11/21 05:40:38;;;;;;;;;;;;;;;15.07;59.44;100122.88;5002232;27;112707;-65
2021/11/21 05:43:04;;;;;;;;;;;;;;;15.06;59.34;100127.50;5001274;27;126680;-65
2021/11/21 05:45:30;;;;;;;;;;;;;;;15.05;59.42;100116.94;5001915;27;98746;-64
2021/11/21 05:47:57;;;;;;;;;;;;;;;15.05;59.17;100122.34;5002133;27;98330;-64
2021/11/21 05:50:23;;;;;;;;;;;;;;;15.04;59.33;100109.91;5001740;27;99203;-57
2021/11/21 05:52:49;;;;;;;;;;;;;;;15.03;59.22;100102.88;5001607;27;123799;-57
2021/11/21 05:55:17;;;;;;;;;;;;;;;15.03;59.63;100105.59;5003171;27;98729;-58
2021/11/21 05:57:42;;;;;;;;;;;;;;;15.03;59.28;100108.31;5002197;27;121720;-57
2021/11/21 06:00:10;;;;;;;;;;;;;;;15.02;59.10;100106.69;5001733;27;111951;-65
2021/11/21 06:02:36;;;;;;;;;;;;;;;15.01;59.16;100116.72;4979248;27;98477;-57
2021/11/21 06:05:02;;;;;;;;;;;;;;;15.00;58.87;100104.28;5001086;27;126911;-65
2021/11/21 06:07:28;;;;;;;;;;;;;;;15.00;59.24;100108.91;5000317;27;103418;-65
2021/11/21 06:09:54;;;;;;;;;;;;;;;15.00;59.29;100114.34;5001613;27;112409;-64
2021/11/21 06:12:20;;;;;;;;;;;;;;;15.00;59.14;100103.47;5001201;27;99087;-65
2021/11/21 06:14:46;;;;;;;;;;;;;;;15.00;59.22;100109.72;5002700;27;98057;-65
2021/11/21 06:17:12;;;;;;;;;;;;;;;14.99;59.14;100110.81;5001050;27;126201;-65
2021/11/21 06:19:39;;;;;;;;;;;;;;;14.97;58.95;100116.56;5003439;27;97900;-64
2021/11/21 06:22:05;;;;;;;;;;;;;;;14.98;59.16;100117.38;5001946;27;98940;-64
2021/11/21 06:24:31;;;;;;;;;;;;;;;14.98;59.33;100111.94;5002536;27;107194;-64
2021/11/21 06:26:57;;;;;;;;;;;;;;;14.98;59.28;100110.03;5002116;27;98059;-64
2021/11/21 06:29:23;;;;;;;;;;;;;;;14.98;58.93;100103.78;5002376;27;112543;-64
2021/11/21 06:31:50;;;;;;;;;;;;;;;14.98;59.31;100111.94;4999508;27;98214;-64
2021/11/21 06:34:17;;;;;;;;;;;;;;;14.98;59.03;100115.44;5002401;27;105316;-64
2021/11/21 06:36:43;;;;;;;;;;;;;;;14.98;59.14;100115.44;4983817;27;97869;-65
2021/11/21 06:39:10;;;;;;;;;;;;;;;14.98;59.15;100106.50;4983866;27;105470;-64
2021/11/21 06:41:37;;;;;;;;;;;;;;;14.98;59.17;100112.72;4983679;27;98148;-64
2021/11/21 06:44:03;;;;;;;;;;;;;;;14.97;58.97;100108.44;5003206;27;99082;-64
2021/11/21 06:46:29;;;;;;;;;;;;;;;15.00;58.96;100106.19;5001573;27;114830;-65
2021/11/21 06:48:55;;;;;;;;;;;;;;;14.98;58.94;100107.31;5002540;27;98063;-65
2021/11/21 06:51:21;;;;;;;;;;;;;;;14.98;59.37;100107.31;5002355;27;100586;-65
2021/11/21 06:53:48;;;;;;;;;;;;;;;14.99;58.84;100108.09;4983267;27;98053;-64
2021/11/21 06:56:16;;;;;;;;;;;;;;;14.99;59.12;100105.38;4983367;27;100352;-65
2021/11/21 06:58:42;;;;;;;;;;;;;;;14.99;58.93;100113.53;5002629;27;103747;-64
2021/11/21 07:01:08;;;;;;;;;;;;;;;15.01;58.98;100113.22;5001775;27;98738;-64
2021/11/21 07:03:34;;;;;;;;;;;;;;;15.00;59.10;100108.91;5001584;27;124184;-65
2021/11/21 07:06:00;;;;;;;;;;;;;;;15.00;58.74;100107.00;5001508;27;97831;-64
2021/11/21 07:08:26;;;;;;;;;;;;;;;14.99;58.73;100110.81;5001407;27;106687;-65
2021/11/21 07:10:52;;;;;;;;;;;;;;;15.01;59.05;100110.50;5001750;27;103208;-65
2021/11/21 07:13:18;;;;;;;;;;;;;;;15.01;59.12;100108.59;5001593;27;99147;-65
2021/11/21 07:15:43;;;;;;;;;;;;;;;15.02;58.84;100117.56;5002482;27;97891;-64
2021/11/21 07:18:09;;;;;;;;;;;;;;;15.02;59.10;100117.56;5000952;27;111877;-65
2021/11/21 07:20:35;;;;;;;;;;;;;;;15.02;59.18;100107.50;5001591;27;98195;-65
2021/11/21 07:23:01;;;;;;;;;;;;;;;15.03;59.00;100111.00;5000444;27;119626;-65
2021/11/21 07:25:28;;;;;;;;;;;;;;;15.02;59.05;100112.13;5001389;27;97851;-65
2021/11/21 07:27:54;;;;;;;;;;;;;;;15.03;58.98;100111.00;5001734;27;98075;-65
2021/11/21 07:30:21;;;;;;;;;;;;;;;15.03;59.06;100102.88;4983547;27;120018;-65
2021/11/21 07:32:47;;;;;;;;;;;;;;;15.03;59.02;100109.09;4980202;27;98276;-64
2021/11/21 07:35:14;;;;;;;;;;;;;;;15.03;58.79;100103.66;4965681;27;100313;-64
2021/11/21 07:37:40;;;;;;;;;;;;;;;15.02;58.69;100104.78;5001635;27;98381;-65
2021/11/21 07:40:10;;;;;;;;;;;;;;;15.02;58.75;100102.06;5000890;27;128784;-65
2021/11/21 07:42:36;;;;;;;;;;;;;;;15.03;58.97;100114.53;4998731;27;99423;-64
2021/11/21 07:45:03;;;;;;;;;;;;;;;15.05;58.81;100120.47;5001207;27;98984;-64
2021/11/21 07:47:29;;;;;;;;;;;;;;;15.05;59.09;100116.94;5001322;27;107409;-65
2021/11/21 07:49:56;;;;;;;;;;;;;;;15.05;58.87;100116.94;5000515;27;128226;-64
2021/11/21 07:52:22;;;;;;;;;;;;;;;15.07;59.08;100112.00;5001932;27;98604;-65
2021/11/21 07:54:48;;;;;;;;;;;;;;;15.10;59.13;100119.56;5001166;27;98051;-65
2021/11/21 07:57:13;;;;;;;;;;;;;;;15.10;59.00;100117.63;5000945;27;112003;-65
2021/11/21 07:59:39;;;;;;;;;;;;;;;15.11;59.02;100121.94;4982060;27;128258;-65
2021/11/21 08:02:05;;;;;;;;;;;;;;;15.12;58.98;100123.53;4999572;27;127766;-64
2021/11/21 08:04:31;;;;;;;;;;;;;;;15.14;59.02;100123.25;5001593;27;98266;-65
2021/11/21 08:06:57;;;;;;;;;;;;;;;15.16;58.81;100129.16;5001892;27;97801;-64
2021/11/21 08:09:23;;;;;;;;;;;;;;;15.16;58.94;100126.44;5000306;27;128451;-65
2021/11/21 08:11:49;;;;;;;;;;;;;;;15.17;58.87;100122.66;5001263;27;98858;-64
2021/11/21 08:14:15;;;;;;;;;;;;;;;15.18;58.75;100118.81;4991789;27;128089;-64
2021/11/21 08:16:42;;;;;;;;;;;;;;;15.19;58.92;100115.78;4982635;27;113144;-64
2021/11/21 08:19:10;;;;;;;;;;;;;;;15.20;59.19;100120.09;5001626;27;98462;-65
2021/11/21 08:21:36;;;;;;;;;;;;;;;15.21;59.27;100120.94;5000242;27;99232;-62
2021/11/21 08:24:02;;;;;;;;;;;;;;;15.21;59.14;100120.94;4992923;27;102956;-64
2021/11/21 08:26:28;;;;;;;;;;;;;;;15.23;58.99;100121.41;5000990;27;97899;-64
2021/11/21 08:28:54;;;;;;;;;;;;;;;15.24;59.04;100120.28;4991085;27;128149;-57
2021/11/21 08:31:20;;;;;;;;;;;;;;;15.25;59.08;100121.09;4999292;27;128631;-57
2021/11/21 08:33:45;;;;;;;;;;;;;;;15.27;59.13;100124.31;4998900;27;98271;-57
2021/11/21 08:36:11;;;;;;;;;;;;;;;15.26;58.90;100126.22;5000535;27;97873;-56
2021/11/21 08:38:37;;;;;;;;;;;;;;;15.28;59.03;100120.50;5000510;27;115410;-64
2021/11/21 08:41:03;;;;;;;;;;;;;;;15.30;58.91;100118.28;4999938;27;98667;-57
2021/11/21 08:43:29;;;;;;;;;;;;;;;15.32;58.99;100119.56;5000322;27;98874;-57
2021/11/21 08:45:55;;;;;;;;;;;;;;;15.31;58.94;100109.03;5000479;27;97893;-64
2021/11/21 08:48:21;;;;;;;;;;;;;;;15.32;59.16;100107.91;4999919;27;127399;-57
2021/11/21 08:50:47;;;;;;;;;;;;;;;15.33;59.15;100117.69;4999945;27;98873;-57
2021/11/21 08:53:13;;;;;;;;;;;;;;;15.34;59.09;100120.06;4999681;27;98375;-57
2021/11/21 08:55:39;;;;;;;;;;;;;;;15.34;59.01;100120.06;4998656;27;112021;-58
2021/11/21 08:58:06;;;;;;;;;;;;;;;15.37;58.97;100119.47;4999568;27;98943;-57
2021/11/21 09:00:32;;;;;;;;;;;;;;;15.37;59.10;100114.03;4998723;27;98122;-64
2021/11/21 09:02:58;;;;;;;;;;;;;;;15.39;59.27;100122.66;4999929;27;98054;-64
2021/11/21 09:05:24;;;;;;;;;;;;;;;15.40;59.02;100116.09;4999991;27;98730;-64
2021/11/21 09:07:50;;;;;;;;;;;;;;;15.41;58.84;100116.94;4999518;27;98335;-65
2021/11/21 09:10:18;;;;;;;;;;;;;;;15.41;58.99;100112.31;4981091;27;124597;-64
2021/11/21 09:12:44;;;;;;;;;;;;;;;15.41;58.96;100116.94;5001385;27;98134;-65
2021/11/21 09:15:11;;;;;;;;;;;;;;;15.41;58.97;100114.22;5001865;27;97850;-64
2021/11/21 09:17:37;;;;;;;;;;;;;;;15.41;59.07;100111.50;4981270;27;98314;-62
2021/11/21 09:20:04;;;;;;;;;;;;;;;15.39;59.53;100111.00;4999972;27;98159;-64
2021/11/21 09:22:30;;;;;;;;;;;;;;;15.36;59.52;100106.97;4975657;28;117510;-64
2021/11/21 09:24:56;;;;;;;;;;;;;;;15.37;59.27;100105.09;4999593;27;113844;-64
2021/11/21 09:27:22;;;;;;;;;;;;;;;15.36;59.34;100115.13;4998939;27;128435;-64
2021/11/21 09:29:47;;;;;;;;;;;;;;;15.36;59.52;100112.41;4997850;27;128220;-64
2021/11/21 09:32:13;;;;;;;;;;;;;;;15.36;59.44;100112.41;4998873;27;121050;-64
2021/11/21 09:34:39;;;;;;;;;;;;;;;15.36;59.24;100108.88;4982296;27;98968;-64
2021/11/21 09:37:06;;;;;;;;;;;;;;;15.36;59.54;100111.59;4999612;27;98444;-64
2021/11/21 09:39:32;;;;;;;;;;;;;;;15.36;59.46;100109.69;4998921;27;119096;-64
2021/11/21 09:41:59;;;;;;;;;;;;;;;15.37;59.23;100107.81;4998571;27;115862;-64
2021/11/21 09:44:25;;;;;;;;;;;;;;;15.40;59.53;100104.44;4982348;27;98114;-64
2021/11/21 09:46:52;;;;;;;;;;;;;;;15.41;59.60;100103.34;4980559;27;98912;-64
2021/11/21 09:49:19;;;;;;;;;;;;;;;15.43;59.50;100101.13;4981205;27;99072;-64
2021/11/21 09:51:45;;;;;;;;;;;;;;;15.44;59.45;100100.84;4998103;27;119898;-64
2021/11/21 09:54:11;;;;;;;;;;;;;;;15.45;59.14;100088.84;4999943;27;97808;-64
2021/11/21 09:56:37;;;;;;;;;;;;;;;15.50;59.37;100085.22;4980069;27;120418;-64
2021/11/21 09:59:03;;;;;;;;;;;;;;;15.58;59.19;100089.09;4998396;27;127123;-65
2021/11/21 10:01:41;;;;;;;;;;;;;;;15.65;59.27;100084.06;4998914;27;126155;-57
2021/11/21 10:04:09;;;;;;;;;;;;;;;15.75;59.08;100081.06;4999081;27;99340;-65
2021/11/21 10:06:36;;;;;;;;;;;;;;;15.94;58.58;100072.69;5000662;27;98070;-64
2021/11/21 10:09:05;;;;;;;;;;;;;;;16.08;58.50;100073.41;5002579;27;111434;-59
2021/11/21 10:11:31;;;;;;;;;;;;;;;16.13;58.68;100078.72;5001419;27;98310;-57
2021/11/21 10:14:06;;;;;;;;;;;;;;;16.18;58.57;100075.03;5003145;27;97833;-63
2021/11/21 10:16:34;;;;;;;;;;;;;;;16.24;58.58;100073.00;4997823;27;123925;-65
2021/11/21 10:19:08;;;;;;;;;;;;;;;16.30;58.68;100071.72;5001665;27;98330;-57
2021/11/21 10:21:36;;;;;;;;;;;;;;;16.35;58.71;100074.31;5001978;27;108001;-57
2021/11/21 10:24:14;;;;;;;;;;;;;;;16.42;58.51;100071.94;4998448;27;98371;-65
2021/11/21 10:26:40;;;;;;;;;;;;;;;16.48;58.61;100069.88;5001617;27;98820;-65
2021/11/21 10:29:44;;;;;;;;;;;;;;;16.50;58.36;100063.00;4984170;27;99897;-57
2021/11/21 10:32:23;;;;;;;;;;;;;;;16.54;58.39;100069.41;4999108;27;98252;-57
2021/11/21 10:34:57;;;;;;;;;;;;;;;16.60;58.61;100068.16;5001008;27;98116;-57
2021/11/21 10:37:36;;;;;;;;;;;;;;;16.65;58.48;100070.69;5001100;27;98911;-57
2021/11/21 10:40:05;;;;;;;;;;;;;;;16.71;58.56;100063.22;5001116;27;117172;-56
2021/11/21 10:42:31;;;;;;;;;;;;;;;16.71;58.60;100065.94;4992937;27;99515;-57
2021/11/21 10:44:57;;;;;;;;;;;;;;;16.74;58.49;100064.50;5001274;27;97851;-57
2021/11/21 10:47:23;;;;;;;;;;;;;;;16.82;58.55;100058.28;5000515;27;126909;-57
2021/11/21 10:49:52;;;;;;;;;;;;;;;16.88;58.54;100063.25;4981261;27;129509;-57
2021/11/21 10:52:22;;;;;;;;;;;;;;;16.96;58.44;100061.66;4977370;28;98576;-57
2021/11/21 10:54:57;;;;;;;;;;;;;;;17.00;58.20;100057.19;4998415;27;98473;-57
2021/11/21 10:57:27;;;;;;;;;;;;;;;17.01;58.37;100053.31;5000219;27;99040;-57
2021/11/21 10:59:55;;;;;;;;;;;;;;;16.97;58.65;100051.56;4999892;27;98784;-58
2021/11/21 11:02:37;;;;;;;;;;;;;;;16.96;58.72;100055.41;4998346;27;106193;-58
2021/11/21 11:05:07;;;;;;;;;;;;;;;16.98;58.69;100055.88;4994578;27;97893;-58
2021/11/21 11:07:35;;;;;;;;;;;;;;;17.00;58.72;100056.38;4999515;27;98796;-58
2021/11/21 11:10:02;;;;;;;;;;;;;;;17.01;58.63;100050.59;4999794;27;99089;-58
2021/11/21 11:12:28;;;;;;;;;;;;;;;17.01;58.67;100061.50;4999929;27;98077;-58
2021/11/21 11:14:56;;;;;;;;;;;;;;;17.03;58.75;100055.75;5000004;27;97824;-57
2021/11/21 11:17:22;;;;;;;;;;;;;;;17.06;58.72;100053.19;4997874;27;100209;-58
2021/11/21 11:19:50;;;;;;;;;;;;;;;17.10;58.68;100053.34;4964874;27;98038;-58
2021/11/21 11:22:16;;;;;;;;;;;;;;;17.15;58.63;100053.97;4998859;27;98021;-58
2021/11/21 11:24:43;;;;;;;;;;;;;;;17.17;58.75;100054.47;5001637;27;97906;-58
2021/11/21 11:27:21;;;;;;;;;;;;;;;17.17;58.89;100057.19;4980996;27;98557;-57
2021/11/21 11:29:49;;;;;;;;;;;;;;;17.17;58.82;100051.75;4975789;27;98417;-58
2021/11/21 11:32:25;;;;;;;;;;;;;;;17.20;58.93;100044.84;4994615;27;100490;-58
2021/11/21 11:34:51;;;;;;;;;;;;;;;17.22;58.97;100049.97;4997539;27;97732;-57
2021/11/21 11:37:39;;;;;;;;;;;;;;;17.22;58.75;100056.22;4981240;27;98165;-57
2021/11/21 11:40:30;;;;;;;;;;;;;;;17.21;58.98;100048.34;4999642;27;98665;-58
2021/11/21 11:42:58;;;;;;;;;;;;;;;17.21;58.98;100045.63;4994507;27;98477;-58
2021/11/21 11:45:43;;;;;;;;;;;;;;;17.19;58.99;100045.97;5000829;27;98140;-65
2021/11/21 11:48:36;;;;;;;;;;;;;;;17.21;58.95;100042.91;4999500;27;99285;-58
2021/11/21 11:51:15;;;;;;;;;;;;;;;17.18;59.12;100042.44;4994113;27;97928;-58
2021/11/21 11:53:48;;;;;;;;;;;;;;;17.14;59.30;100043.41;4992699;27;98446;-57
2021/11/21 11:56:28;;;;;;;;;;;;;;;17.07;59.58;100045.81;4981779;27;98241;-65
2021/11/21 11:59:09;;;;;;;;;;;;;;;17.04;59.49;100055.41;4999290;27;98308;-65
2021/11/21 12:01:38;;;;;;;;;;;;;;;17.01;59.46;100044.34;4999698;27;105912;-65
2021/11/21 12:04:16;;;;;;;;;;;;;;;16.99;59.67;100043.91;4999823;27;98396;-58
2021/11/21 12:06:45;;;;;;;;;;;;;;;16.98;59.52;100045.81;5000408;27;97831;-58
2021/11/21 12:09:19;;;;;;;;;;;;;;;16.97;59.63;100043.41;4991896;27;99059;-65
2021/11/21 12:12:06;;;;;;;;;;;;;;;16.99;59.53;100047.41;4999115;27;98658;-65
2021/11/21 12:14:35;;;;;;;;;;;;;;;17.00;59.57;100046.28;4999818;27;97930;-58
2021/11/21 12:17:05;;;;;;;;;;;;;;;16.99;59.52;100039.25;4998497;27;97987;-58
2021/11/21 12:19:47;;;;;;;;;;;;;;;16.95;59.70;100041.00;4998950;27;120180;-58
2021/11/21 12:22:37;;;;;;;;;;;;;;;16.89;59.75;100042.28;4971084;28;99097;-58
2021/11/21 12:25:06;;;;;;;;;;;;;;;16.83;59.81;100049.81;4991132;27;98239;-58
2021/11/21 12:27:33;;;;;;;;;;;;;;;16.79;60.06;100043.41;4993572;27;98230;-65
2021/11/21 12:30:22;;;;;;;;;;;;;;;16.75;60.13;100047.88;4997132;27;99245;-58
2021/11/21 12:32:48;;;;;;;;;;;;;;;16.70;60.05;100050.69;4997561;27;98336;-57
2021/11/21 12:35:28;;;;;;;;;;;;;;;16.68;60.09;100050.22;4998086;27;98365;-58